sensor_id;sensor_type;location;lat;lon;timestamp;pressure;altitude;pressure_sealevel;temperature;humidity
67015;BME280;1033;52.560;13.374;2022-12-29T00:00:19;100147.84;;;8.41;86.90
67015;BME280;1033;52.560;13.374;2022-12-29T00:02:48;100143.69;;;8.45;86.95
67015;BME280;1033;52.560;13.374;2022-12-29T00:05:17;100134.78;;;8.45;86.45
67015;BME280;1033;52.560;13.374;2022-12-29T00:07:46;100133.75;;;8.46;86.54
67015;BME280;1033;52.560;13.374;2022-12-29T00:10:15;100136.63;;;8.57;85.83
67015;BME280;1033;52.560;13.374;2022-12-29T00:12:44;100140.38;;;8.50;86.12
67015;BME280;1033;52.560;13.374;2022-12-29T00:15:32;100129.78;;;8.55;86.28
67015;BME280;1033;52.560;13.374;2022-12-29T00:18:07;100130.00;;;8.53;85.77
67015;BME280;1033;52.560;13.374;2022-12-29T00:20:37;100127.28;;;8.53;85.77
67015;BME280;1033;52.560;13.374;2022-12-29T00:23:23;100130.22;;;8.65;84.91
67015;BME280;1033;52.560;13.374;2022-12-29T00:26:13;100121.72;;;8.55;85.41
67015;BME280;1033;52.560;13.374;2022-12-29T00:29:00;100115.06;;;8.57;85.55
67015;BME280;1033;52.560;13.374;2022-12-29T00:31:47;100116.75;;;8.52;85.96
67015;BME280;1033;52.560;13.374;2022-12-29T00:34:34;100114.44;;;8.62;85.75
67015;BME280;1033;52.560;13.374;2022-12-29T00:37:21;100104.25;;;8.57;86.07
67015;BME280;1033;52.560;13.374;2022-12-29T00:40:10;100106.78;;;8.46;86.88
67015;BME280;1033;52.560;13.374;2022-12-29T00:42:56;100101.78;;;8.49;86.54
67015;BME280;1033;52.560;13.374;2022-12-29T00:45:43;100104.28;;;8.51;86.38
67015;BME280;1033;52.560;13.374;2022-12-29T00:48:13;100108.03;;;8.50;85.84
67015;BME280;1033;52.560;13.374;2022-12-29T00:50:43;100104.69;;;8.48;86.21
67015;BME280;1033;52.560;13.374;2022-12-29T00:53:11;100099.50;;;8.53;86.23
67015;BME280;1033;52.560;13.374;2022-12-29T00:55:40;100097.44;;;8.55;86.05
67015;BME280;1033;52.560;13.374;2022-12-29T00:58:09;100096.00;;;8.46;86.71
67015;BME280;1033;52.560;13.374;2022-12-29T01:00:38;100092.28;;;8.47;86.98
67015;BME280;1033;52.560;13.374;2022-12-29T01:03:07;100105.72;;;8.53;87.19
67015;BME280;1033;52.560;13.374;2022-12-29T01:05:38;100100.56;;;8.52;86.73
67015;BME280;1033;52.560;13.374;2022-12-29T01:08:07;100089.56;;;8.40;87.57
67015;BME280;1033;52.560;13.374;2022-12-29T01:10:36;100097.03;;;8.51;87.57
67015;BME280;1033;52.560;13.374;2022-12-29T01:13:04;100098.88;;;8.38;87.52
67015;BME280;1033;52.560;13.374;2022-12-29T01:15:33;100083.75;;;8.37;87.85
67015;BME280;1033;52.560;13.374;2022-12-29T01:18:02;100096.19;;;8.44;87.37
67015;BME280;1033;52.560;13.374;2022-12-29T01:20:31;100092.28;;;8.47;87.35
67015;BME280;1033;52.560;13.374;2022-12-29T01:23:02;100093.50;;;8.44;87.27
67015;BME280;1033;52.560;13.374;2022-12-29T01:25:31;100094.72;;;8.48;87.54
67015;BME280;1033;52.560;13.374;2022-12-29T01:28:00;100088.50;;;8.48;87.57
67015;BME280;1033;52.560;13.374;2022-12-29T01:30:29;100093.28;;;8.46;87.02
67015;BME280;1033;52.560;13.374;2022-12-29T01:32:59;100082.28;;;8.54;86.40
67015;BME280;1033;52.560;13.374;2022-12-29T01:35:28;100089.34;;;8.61;86.22
67015;BME280;1033;52.560;13.374;2022-12-29T01:37:58;100088.09;;;8.57;86.20
67015;BME280;1033;52.560;13.374;2022-12-29T01:40:28;100088.94;;;8.64;85.99
67015;BME280;1033;52.560;13.374;2022-12-29T01:42:59;100086.44;;;8.63;86.54
67015;BME280;1033;52.560;13.374;2022-12-29T01:45:28;100088.09;;;8.57;86.47
67015;BME280;1033;52.560;13.374;2022-12-29T01:47:58;100089.75;;;8.58;86.53
67015;BME280;1033;52.560;13.374;2022-12-29T01:50:33;100092.25;;;8.60;86.44
67015;BME280;1033;52.560;13.374;2022-12-29T01:53:08;100090.59;;;8.59;86.94
67015;BME280;1033;52.560;13.374;2022-12-29T01:55:42;100080.22;;;8.56;87.53
67015;BME280;1033;52.560;13.374;2022-12-29T01:58:14;100073.19;;;8.61;87.99
67015;BME280;1033;52.560;13.374;2022-12-29T02:00:44;100073.59;;;8.52;88.17
67015;BME280;1033;52.560;13.374;2022-12-29T02:03:14;100060.75;;;8.41;88.76
67015;BME280;1033;52.560;13.374;2022-12-29T02:05:49;100056.59;;;8.45;89.29
67015;BME280;1033;52.560;13.374;2022-12-29T02:08:23;100059.50;;;8.37;90.04
67015;BME280;1033;52.560;13.374;2022-12-29T02:10:56;100059.06;;;8.53;89.51
67015;BME280;1033;52.560;13.374;2022-12-29T02:13:26;100056.97;;;8.48;89.47
67015;BME280;1033;52.560;13.374;2022-12-29T02:16:04;100048.28;;;8.40;89.75
67015;BME280;1033;52.560;13.374;2022-12-29T02:18:44;100045.34;;;8.28;90.76
67015;BME280;1033;52.560;13.374;2022-12-29T02:21:53;100041.25;;;8.32;90.05
67015;BME280;1033;52.560;13.374;2022-12-29T02:24:53;100038.78;;;8.37;89.72
67015;BME280;1033;52.560;13.374;2022-12-29T02:30:40;100036.06;;;8.50;88.56
67015;BME280;1033;52.560;13.374;2022-12-29T02:33:22;100025.66;;;8.60;87.23
67015;BME280;1033;52.560;13.374;2022-12-29T02:35:59;100032.50;;;8.63;85.93
67015;BME280;1033;52.560;13.374;2022-12-29T02:38:51;100022.13;;;8.60;85.81
67015;BME280;1033;52.560;13.374;2022-12-29T02:41:27;100030.03;;;8.55;86.01
67015;BME280;1033;52.560;13.374;2022-12-29T02:44:04;100021.31;;;8.66;84.85
67015;BME280;1033;52.560;13.374;2022-12-29T02:46:43;100021.06;;;8.74;83.90
67015;BME280;1033;52.560;13.374;2022-12-29T02:49:18;100021.69;;;8.76;83.81
67015;BME280;1033;52.560;13.374;2022-12-29T02:51:51;100028.91;;;8.89;83.07
67015;BME280;1033;52.560;13.374;2022-12-29T02:54:24;100018.31;;;8.87;82.43
67015;BME280;1033;52.560;13.374;2022-12-29T02:57:26;100014.78;;;8.93;82.18
67015;BME280;1033;52.560;13.374;2022-12-29T03:00:00;100019.75;;;8.96;81.53
67015;BME280;1033;52.560;13.374;2022-12-29T03:02:51;100012.94;;;8.87;82.19
67015;BME280;1033;52.560;13.374;2022-12-29T03:05:57;100018.25;;;9.07;81.33
67015;BME280;1033;52.560;13.374;2022-12-29T03:08:38;100006.03;;;9.04;80.59
67015;BME280;1033;52.560;13.374;2022-12-29T03:11:15;100005.59;;;9.07;80.91
67015;BME280;1033;52.560;13.374;2022-12-29T03:14:06;99991.66;;;9.10;80.01
67015;BME280;1033;52.560;13.374;2022-12-29T03:16:57;99989.75;;;9.24;79.25
67015;BME280;1033;52.560;13.374;2022-12-29T03:19:32;99977.69;;;9.20;79.32
67015;BME280;1033;52.560;13.374;2022-12-29T03:22:05;99984.94;;;9.33;78.78
67015;BME280;1033;52.560;13.374;2022-12-29T03:25:23;99998.16;;;9.41;78.63
67015;BME280;1033;52.560;13.374;2022-12-29T03:27:57;99984.16;;;9.57;77.90
67015;BME280;1033;52.560;13.374;2022-12-29T03:30:31;99982.59;;;9.43;78.34
67015;BME280;1033;52.560;13.374;2022-12-29T03:33:04;99981.97;;;9.41;78.09
67015;BME280;1033;52.560;13.374;2022-12-29T03:35:38;99981.47;;;9.57;77.10
67015;BME280;1033;52.560;13.374;2022-12-29T03:38:14;99985.63;;;9.53;77.40
67015;BME280;1033;52.560;13.374;2022-12-29T03:40:49;99981.28;;;9.52;77.92
67015;BME280;1033;52.560;13.374;2022-12-29T03:43:19;99979.22;;;9.47;77.58
67015;BME280;1033;52.560;13.374;2022-12-29T03:45:49;99965.66;;;9.54;77.71
67015;BME280;1033;52.560;13.374;2022-12-29T03:48:18;99973.91;;;9.66;77.15
67015;BME280;1033;52.560;13.374;2022-12-29T03:50:51;99973.94;;;9.59;77.67
67015;BME280;1033;52.560;13.374;2022-12-29T03:53:20;99972.91;;;9.60;77.12
67015;BME280;1033;52.560;13.374;2022-12-29T03:55:49;99975.13;;;9.70;77.15
67015;BME280;1033;52.560;13.374;2022-12-29T03:58:18;99982.19;;;9.71;77.00
67015;BME280;1033;52.560;13.374;2022-12-29T04:01:02;99979.28;;;9.72;77.21
67015;BME280;1033;52.560;13.374;2022-12-29T04:03:34;99980.91;;;9.73;77.36
67015;BME280;1033;52.560;13.374;2022-12-29T04:06:06;99974.63;;;9.79;76.97
67015;BME280;1033;52.560;13.374;2022-12-29T04:08:41;99965.31;;;9.75;77.57
67015;BME280;1033;52.560;13.374;2022-12-29T04:11:11;99972.28;;;9.89;76.93
67015;BME280;1033;52.560;13.374;2022-12-29T04:13:42;99974.25;;;9.76;77.79
67015;BME280;1033;52.560;13.374;2022-12-29T04:16:14;99976.47;;;9.85;77.43
67015;BME280;1033;52.560;13.374;2022-12-29T04:18:45;99963.97;;;9.91;76.91
67015;BME280;1033;52.560;13.374;2022-12-29T04:21:15;99966.50;;;9.86;77.27
67015;BME280;1033;52.560;13.374;2022-12-29T04:23:44;99966.88;;;9.89;77.33
67015;BME280;1033;52.560;13.374;2022-12-29T04:26:15;99981.19;;;9.96;76.98
67015;BME280;1033;52.560;13.374;2022-12-29T04:28:57;99987.16;;;9.98;77.08
67015;BME280;1033;52.560;13.374;2022-12-29T04:31:50;99969.47;;;10.02;76.82
67015;BME280;1033;52.560;13.374;2022-12-29T04:34:19;99976.69;;;10.09;76.51
67015;BME280;1033;52.560;13.374;2022-12-29T04:36:51;99953.25;;;10.02;76.90
67015;BME280;1033;52.560;13.374;2022-12-29T04:39:20;99954.91;;;10.03;76.63
67015;BME280;1033;52.560;13.374;2022-12-29T04:41:49;99957.06;;;9.95;76.98
67015;BME280;1033;52.560;13.374;2022-12-29T04:44:21;99951.28;;;9.91;77.01
67015;BME280;1033;52.560;13.374;2022-12-29T04:47:28;99944.97;;;9.97;76.54
67015;BME280;1033;52.560;13.374;2022-12-29T04:50:36;99955.31;;;9.82;77.11
67015;BME280;1033;52.560;13.374;2022-12-29T04:53:18;99948.50;;;9.73;77.70
67015;BME280;1033;52.560;13.374;2022-12-29T04:55:49;99946.19;;;9.77;77.70
67015;BME280;1033;52.560;13.374;2022-12-29T04:58:19;99943.44;;;9.83;77.52
67015;BME280;1033;52.560;13.374;2022-12-29T05:00:51;99953.91;;;9.73;77.77
67015;BME280;1033;52.560;13.374;2022-12-29T05:03:23;99947.34;;;9.63;78.48
67015;BME280;1033;52.560;13.374;2022-12-29T05:05:53;99945.97;;;9.78;78.15
67015;BME280;1033;52.560;13.374;2022-12-29T05:08:24;99939.84;;;9.89;77.73
67015;BME280;1033;52.560;13.374;2022-12-29T05:10:58;99941.78;;;9.82;77.90
67015;BME280;1033;52.560;13.374;2022-12-29T05:13:27;99941.34;;;9.85;77.70
67015;BME280;1033;52.560;13.374;2022-12-29T05:15:57;99941.78;;;9.82;77.91
67015;BME280;1033;52.560;13.374;2022-12-29T05:18:27;99940.50;;;9.85;77.99
67015;BME280;1033;52.560;13.374;2022-12-29T05:20:58;99929.25;;;9.88;77.71
67015;BME280;1033;52.560;13.374;2022-12-29T05:23:29;99929.03;;;9.89;77.93
67015;BME280;1033;52.560;13.374;2022-12-29T05:26:02;99921.63;;;10.03;77.38
67015;BME280;1033;52.560;13.374;2022-12-29T05:29:03;99915.03;;;9.99;77.78
67015;BME280;1033;52.560;13.374;2022-12-29T05:31:33;99916.72;;;9.93;77.85
67015;BME280;1033;52.560;13.374;2022-12-29T05:34:04;99920.88;;;9.96;78.18
67015;BME280;1033;52.560;13.374;2022-12-29T05:36:34;99920.72;;;10.16;77.54
67015;BME280;1033;52.560;13.374;2022-12-29T05:39:08;99913.38;;;10.23;77.40
67015;BME280;1033;52.560;13.374;2022-12-29T05:41:38;99905.75;;;10.13;77.74
67015;BME280;1033;52.560;13.374;2022-12-29T05:44:16;99911.56;;;10.17;77.69
67015;BME280;1033;52.560;13.374;2022-12-29T05:47:23;99912.84;;;10.32;77.43
67015;BME280;1033;52.560;13.374;2022-12-29T05:50:11;99908.56;;;10.25;77.44
67015;BME280;1033;52.560;13.374;2022-12-29T05:52:59;99906.63;;;10.32;77.36
67015;BME280;1033;52.560;13.374;2022-12-29T05:55:30;99901.59;;;10.35;77.08
67015;BME280;1033;52.560;13.374;2022-12-29T05:57:59;99912.78;;;10.39;76.84
67015;BME280;1033;52.560;13.374;2022-12-29T06:00:29;99894.91;;;10.38;77.16
67015;BME280;1033;52.560;13.374;2022-12-29T06:02:59;99892.13;;;10.44;77.24
67015;BME280;1033;52.560;13.374;2022-12-29T06:05:28;99904.22;;;10.42;77.36
67015;BME280;1033;52.560;13.374;2022-12-29T06:07:58;99890.78;;;10.54;77.00
67015;BME280;1033;52.560;13.374;2022-12-29T06:10:29;99885.44;;;10.47;77.16
67015;BME280;1033;52.560;13.374;2022-12-29T06:13:08;99888.22;;;10.59;76.92
67015;BME280;1033;52.560;13.374;2022-12-29T06:15:41;99880.69;;;10.61;76.99
67015;BME280;1033;52.560;13.374;2022-12-29T06:18:11;99894.69;;;10.58;77.21
67015;BME280;1033;52.560;13.374;2022-12-29T06:20:47;99892.28;;;10.68;76.59
67015;BME280;1033;52.560;13.374;2022-12-29T06:23:18;99897.69;;;10.68;76.77
67015;BME280;1033;52.560;13.374;2022-12-29T06:25:49;99892.06;;;10.69;76.49
67015;BME280;1033;52.560;13.374;2022-12-29T06:28:18;99895.50;;;10.76;76.51
67015;BME280;1033;52.560;13.374;2022-12-29T06:30:47;99896.69;;;10.80;75.98
67015;BME280;1033;52.560;13.374;2022-12-29T06:33:18;99891.53;;;10.79;76.29
67015;BME280;1033;52.560;13.374;2022-12-29T06:35:47;99899.72;;;10.72;76.38
67015;BME280;1033;52.560;13.374;2022-12-29T06:38:16;99900.31;;;10.74;76.52
67015;BME280;1033;52.560;13.374;2022-12-29T06:40:45;99905.78;;;10.86;76.30
67015;BME280;1033;52.560;13.374;2022-12-29T06:43:21;99906.59;;;10.86;76.06
67015;BME280;1033;52.560;13.374;2022-12-29T06:46:13;99916.59;;;10.86;76.29
67015;BME280;1033;52.560;13.374;2022-12-29T06:48:43;99906.09;;;10.78;76.58
67015;BME280;1033;52.560;13.374;2022-12-29T06:51:12;99908.34;;;10.81;76.46
67015;BME280;1033;52.560;13.374;2022-12-29T06:53:41;99907.34;;;10.94;76.13
67015;BME280;1033;52.560;13.374;2022-12-29T06:56:10;99902.84;;;10.87;76.16
67015;BME280;1033;52.560;13.374;2022-12-29T06:58:41;99916.59;;;10.86;76.32
67015;BME280;1033;52.560;13.374;2022-12-29T07:01:10;99908.34;;;10.81;76.39
67015;BME280;1033;52.560;13.374;2022-12-29T07:03:41;99922.56;;;10.76;76.80
67015;BME280;1033;52.560;13.374;2022-12-29T07:06:11;99922.13;;;10.79;76.84
67015;BME280;1033;52.560;13.374;2022-12-29T07:08:40;99919.66;;;10.60;77.51
67015;BME280;1033;52.560;13.374;2022-12-29T07:11:09;99911.06;;;10.63;77.69
67015;BME280;1033;52.560;13.374;2022-12-29T07:13:40;99912.84;;;10.51;78.04
67015;BME280;1033;52.560;13.374;2022-12-29T07:16:10;99927.97;;;10.58;77.97
67015;BME280;1033;52.560;13.374;2022-12-29T07:18:39;99929.34;;;10.49;78.58
67015;BME280;1033;52.560;13.374;2022-12-29T07:21:08;99924.44;;;10.58;78.24
67015;BME280;1033;52.560;13.374;2022-12-29T07:23:37;99903.16;;;10.61;78.19
67015;BME280;1033;52.560;13.374;2022-12-29T07:26:08;99917.31;;;10.63;78.15
67015;BME280;1033;52.560;13.374;2022-12-29T07:28:38;99913.16;;;10.61;78.09
67015;BME280;1033;52.560;13.374;2022-12-29T07:31:14;99910.31;;;10.56;78.29
67015;BME280;1033;52.560;13.374;2022-12-29T07:33:44;99914.28;;;10.53;78.39
67015;BME280;1033;52.560;13.374;2022-12-29T07:36:15;99902.72;;;10.46;78.51
67015;BME280;1033;52.560;13.374;2022-12-29T07:38:44;99899.28;;;10.39;79.00
67015;BME280;1033;52.560;13.374;2022-12-29T07:41:13;99898.44;;;10.38;79.01
67015;BME280;1033;52.560;13.374;2022-12-29T07:43:46;99914.28;;;10.35;79.20
67015;BME280;1033;52.560;13.374;2022-12-29T07:46:52;99912.34;;;10.42;79.13
67015;BME280;1033;52.560;13.374;2022-12-29T07:49:24;99900.78;;;10.53;78.58
67015;BME280;1033;52.560;13.374;2022-12-29T07:51:53;99902.44;;;10.54;78.77
67015;BME280;1033;52.560;13.374;2022-12-29T07:54:22;99906.13;;;10.60;78.24
67015;BME280;1033;52.560;13.374;2022-12-29T07:56:52;99910.84;;;10.64;77.99
67015;BME280;1033;52.560;13.374;2022-12-29T07:59:21;99909.34;;;10.68;77.88
67015;BME280;1033;52.560;13.374;2022-12-29T08:01:52;99911.22;;;10.68;78.14
67015;BME280;1033;52.560;13.374;2022-12-29T08:04:21;99916.25;;;10.64;78.17
67015;BME280;1033;52.560;13.374;2022-12-29T08:06:50;99914.13;;;10.66;78.25
67015;BME280;1033;52.560;13.374;2022-12-29T08:09:19;99918.66;;;10.72;78.11
67015;BME280;1033;52.560;13.374;2022-12-29T08:11:51;99914.91;;;10.73;77.92
67015;BME280;1033;52.560;13.374;2022-12-29T08:14:20;99909.25;;;10.75;77.89
67015;BME280;1033;52.560;13.374;2022-12-29T08:16:51;99911.28;;;10.79;77.96
67015;BME280;1033;52.560;13.374;2022-12-29T08:19:20;99914.06;;;10.73;78.24
67015;BME280;1033;52.560;13.374;2022-12-29T08:21:50;99895.94;;;10.73;77.72
67015;BME280;1033;52.560;13.374;2022-12-29T08:24:20;99908.13;;;10.82;77.69
67015;BME280;1033;52.560;13.374;2022-12-29T08:26:49;99916.56;;;10.74;78.24
67015;BME280;1033;52.560;13.374;2022-12-29T08:29:18;99915.94;;;10.72;77.87
67015;BME280;1033;52.560;13.374;2022-12-29T08:31:49;99905.13;;;10.72;78.24
67015;BME280;1033;52.560;13.374;2022-12-29T08:34:19;99912.78;;;10.57;78.65
67015;BME280;1033;52.560;13.374;2022-12-29T08:36:49;99914.38;;;10.65;78.53
67015;BME280;1033;52.560;13.374;2022-12-29T08:39:18;99896.56;;;10.57;78.56
67015;BME280;1033;52.560;13.374;2022-12-29T08:41:47;99896.34;;;10.59;78.80
67015;BME280;1033;52.560;13.374;2022-12-29T08:44:16;99898.44;;;10.57;78.85
67015;BME280;1033;52.560;13.374;2022-12-29T08:46:46;99902.72;;;10.64;78.54
67015;BME280;1033;52.560;13.374;2022-12-29T08:49:15;99908.13;;;10.64;78.59
67015;BME280;1033;52.560;13.374;2022-12-29T08:51:46;99910.06;;;10.75;78.10
67015;BME280;1033;52.560;13.374;2022-12-29T08:54:15;99913.22;;;10.90;77.69
67015;BME280;1033;52.560;13.374;2022-12-29T08:56:45;99910.78;;;11.01;77.29
67015;BME280;1033;52.560;13.374;2022-12-29T08:59:15;99907.09;;;11.13;76.61
67015;BME280;1033;52.560;13.374;2022-12-29T09:01:47;99913.59;;;11.24;75.91
67015;BME280;1033;52.560;13.374;2022-12-29T09:04:16;99901.00;;;11.29;75.99
67015;BME280;1033;52.560;13.374;2022-12-29T09:06:47;99896.28;;;11.25;75.93
67015;BME280;1033;52.560;13.374;2022-12-29T09:09:16;99890.66;;;11.26;75.68
67015;BME280;1033;52.560;13.374;2022-12-29T09:11:46;99893.00;;;11.23;75.66
67015;BME280;1033;52.560;13.374;2022-12-29T09:14:15;99892.72;;;11.13;75.99
67015;BME280;1033;52.560;13.374;2022-12-29T09:16:44;99892.88;;;11.18;76.14
67015;BME280;1033;52.560;13.374;2022-12-29T09:19:31;99893.22;;;11.21;75.78
67015;BME280;1033;52.560;13.374;2022-12-29T09:22:01;99888.78;;;11.27;75.65
67015;BME280;1033;52.560;13.374;2022-12-29T09:24:31;99892.19;;;11.34;75.61
67015;BME280;1033;52.560;13.374;2022-12-29T09:27:00;99892.94;;;11.41;75.34
67015;BME280;1033;52.560;13.374;2022-12-29T09:29:29;99889.41;;;11.52;74.79
67015;BME280;1033;52.560;13.374;2022-12-29T09:31:58;99880.03;;;11.66;74.19
67015;BME280;1033;52.560;13.374;2022-12-29T09:34:28;99876.78;;;11.76;73.96
67015;BME280;1033;52.560;13.374;2022-12-29T09:36:58;99883.00;;;11.88;73.23
67015;BME280;1033;52.560;13.374;2022-12-29T09:39:29;99876.41;;;11.84;73.21
67015;BME280;1033;52.560;13.374;2022-12-29T09:42:03;99867.81;;;11.75;73.50
67015;BME280;1033;52.560;13.374;2022-12-29T09:44:46;99851.53;;;11.75;73.54
67015;BME280;1033;52.560;13.374;2022-12-29T09:47:18;99857.22;;;11.86;73.67
67015;BME280;1033;52.560;13.374;2022-12-29T09:49:53;99868.03;;;12.09;72.78
67015;BME280;1033;52.560;13.374;2022-12-29T09:52:25;99864.59;;;12.25;72.00
67015;BME280;1033;52.560;13.374;2022-12-29T09:55:02;99878.53;;;12.17;71.83
67015;BME280;1033;52.560;13.374;2022-12-29T09:57:44;99876.53;;;12.24;71.93
67015;BME280;1033;52.560;13.374;2022-12-29T10:00:16;99881.13;;;12.24;71.99
67015;BME280;1033;52.560;13.374;2022-12-29T10:02:50;99879.81;;;12.26;71.78
67015;BME280;1033;52.560;13.374;2022-12-29T10:05:29;99886.63;;;12.40;71.60
67015;BME280;1033;52.560;13.374;2022-12-29T10:08:10;99883.19;;;12.45;71.40
67015;BME280;1033;52.560;13.374;2022-12-29T10:10:50;99872.63;;;12.32;71.73
67015;BME280;1033;52.560;13.374;2022-12-29T10:13:37;99881.22;;;12.17;72.22
67015;BME280;1033;52.560;13.374;2022-12-29T10:16:11;99885.84;;;12.05;72.89
67015;BME280;1033;52.560;13.374;2022-12-29T10:19:07;99881.34;;;12.10;72.90
67015;BME280;1033;52.560;13.374;2022-12-29T10:21:54;99883.84;;;12.12;73.03
67015;BME280;1033;52.560;13.374;2022-12-29T10:24:29;99873.56;;;12.26;72.57
67015;BME280;1033;52.560;13.374;2022-12-29T10:27:01;99865.97;;;12.39;71.90
67015;BME280;1033;52.560;13.374;2022-12-29T10:29:35;99881.34;;;12.74;71.67
67015;BME280;1033;52.560;13.374;2022-12-29T10:32:09;99874.34;;;12.89;70.24
67015;BME280;1033;52.560;13.374;2022-12-29T10:35:00;99867.25;;;12.88;70.15
67015;BME280;1033;52.560;13.374;2022-12-29T10:37:40;99866.16;;;13.01;69.82
67015;BME280;1033;52.560;13.374;2022-12-29T10:40:19;99864.25;;;13.13;69.21
67015;BME280;1033;52.560;13.374;2022-12-29T10:42:54;99876.22;;;13.29;69.19
67015;BME280;1033;52.560;13.374;2022-12-29T10:45:25;99865.34;;;13.29;68.54
67015;BME280;1033;52.560;13.374;2022-12-29T10:47:59;99858.53;;;13.43;67.90
67015;BME280;1033;52.560;13.374;2022-12-29T10:50:30;99860.44;;;13.59;67.46
67015;BME280;1033;52.560;13.374;2022-12-29T10:53:02;99866.25;;;13.51;67.90
67015;BME280;1033;52.560;13.374;2022-12-29T10:55:36;99843.97;;;13.49;67.70
67015;BME280;1033;52.560;13.374;2022-12-29T10:58:12;99855.97;;;13.53;67.84
67015;BME280;1033;52.560;13.374;2022-12-29T11:00:43;99861.34;;;13.65;67.62
67015;BME280;1033;52.560;13.374;2022-12-29T11:03:50;99848.50;;;13.43;67.78
67015;BME280;1033;52.560;13.374;2022-12-29T11:06:27;99845.53;;;13.45;67.95
67015;BME280;1033;52.560;13.374;2022-12-29T11:08:59;99847.81;;;13.36;68.51
67015;BME280;1033;52.560;13.374;2022-12-29T11:11:35;99853.00;;;13.38;68.55
67015;BME280;1033;52.560;13.374;2022-12-29T11:14:12;99848.13;;;13.23;68.42
67015;BME280;1033;52.560;13.374;2022-12-29T11:16:45;99849.28;;;13.27;68.10
67015;BME280;1033;52.560;13.374;2022-12-29T11:19:35;99848.78;;;13.14;68.77
67015;BME280;1033;52.560;13.374;2022-12-29T11:22:23;99853.13;;;13.15;68.97
67015;BME280;1033;52.560;13.374;2022-12-29T11:25:04;99848.53;;;13.15;69.09
67015;BME280;1033;52.560;13.374;2022-12-29T11:27:34;99852.69;;;13.34;68.94
67015;BME280;1033;52.560;13.374;2022-12-29T11:30:23;99860.59;;;13.36;68.68
67015;BME280;1033;52.560;13.374;2022-12-29T11:32:59;99844.03;;;13.21;68.53
67015;BME280;1033;52.560;13.374;2022-12-29T11:35:36;99878.28;;;13.10;69.30
67015;BME280;1033;52.560;13.374;2022-12-29T11:38:23;99865.34;;;13.00;69.94
67015;BME280;1033;52.560;13.374;2022-12-29T11:41:05;99858.59;;;13.03;70.16
67015;BME280;1033;52.560;13.374;2022-12-29T11:43:56;99859.31;;;12.98;70.65
67015;BME280;1033;52.560;13.374;2022-12-29T11:46:32;99870.06;;;12.93;71.59
67015;BME280;1033;52.560;13.374;2022-12-29T11:49:02;99878.63;;;12.85;71.62
67015;BME280;1033;52.560;13.374;2022-12-29T11:51:37;99868.81;;;12.84;71.99
67015;BME280;1033;52.560;13.374;2022-12-29T11:54:15;99871.50;;;12.68;72.84
67015;BME280;1033;52.560;13.374;2022-12-29T11:56:51;99874.78;;;12.70;73.29
67015;BME280;1033;52.560;13.374;2022-12-29T11:59:43;99870.41;;;12.69;73.20
67015;BME280;1033;52.560;13.374;2022-12-29T12:02:44;99864.09;;;12.51;73.52
67015;BME280;1033;52.560;13.374;2022-12-29T12:05:30;99882.97;;;12.46;75.07
67015;BME280;1033;52.560;13.374;2022-12-29T12:08:09;99880.28;;;12.23;76.32
67015;BME280;1033;52.560;13.374;2022-12-29T12:10:54;99872.28;;;12.05;78.38
67015;BME280;1033;52.560;13.374;2022-12-29T12:13:32;99871.69;;;11.91;79.49
67015;BME280;1033;52.560;13.374;2022-12-29T12:16:11;99879.47;;;11.76;80.63
67015;BME280;1033;52.560;13.374;2022-12-29T12:19:01;99892.03;;;11.70;80.87
67015;BME280;1033;52.560;13.374;2022-12-29T12:21:39;99898.13;;;11.54;82.96
67015;BME280;1033;52.560;13.374;2022-12-29T12:24:34;99896.81;;;11.45;83.58
67015;BME280;1033;52.560;13.374;2022-12-29T12:27:12;99876.75;;;11.34;84.35
67015;BME280;1033;52.560;13.374;2022-12-29T12:29:55;99886.22;;;11.44;84.48
67015;BME280;1033;52.560;13.374;2022-12-29T12:32:34;99878.78;;;11.39;83.01
67015;BME280;1033;52.560;13.374;2022-12-29T12:35:15;99877.25;;;11.31;83.14
67015;BME280;1033;52.560;13.374;2022-12-29T12:38:13;99873.97;;;11.41;82.14
67015;BME280;1033;52.560;13.374;2022-12-29T12:41:05;99875.50;;;11.49;81.69
67015;BME280;1033;52.560;13.374;2022-12-29T12:43:45;99875.63;;;11.42;81.88
67015;BME280;1033;52.560;13.374;2022-12-29T12:49:40;99872.78;;;11.37;81.01
67015;BME280;1033;52.560;13.374;2022-12-29T12:52:23;99883.00;;;11.35;80.92
67015;BME280;1033;52.560;13.374;2022-12-29T12:55:12;99875.66;;;11.24;81.21
67015;BME280;1033;52.560;13.374;2022-12-29T12:57:53;99883.22;;;11.22;81.06
67015;BME280;1033;52.560;13.374;2022-12-29T13:00:28;99892.25;;;11.16;81.26
67015;BME280;1033;52.560;13.374;2022-12-29T13:03:10;99897.66;;;11.16;81.22
67015;BME280;1033;52.560;13.374;2022-12-29T13:06:07;99898.56;;;11.10;80.92
67015;BME280;1033;52.560;13.374;2022-12-29T13:09:00;99893.56;;;11.25;80.57
67015;BME280;1033;52.560;13.374;2022-12-29T13:11:55;99903.22;;;11.21;80.93
67015;BME280;1033;52.560;13.374;2022-12-29T13:14:47;99891.00;;;11.30;80.44
67015;BME280;1033;52.560;13.374;2022-12-29T13:17:24;99896.78;;;11.33;80.84
67015;BME280;1033;52.560;13.374;2022-12-29T13:20:07;99895.59;;;11.29;81.31
67015;BME280;1033;52.560;13.374;2022-12-29T13:22:47;99900.19;;;11.29;81.62
67015;BME280;1033;52.560;13.374;2022-12-29T13:25:29;99894.53;;;11.30;82.02
67015;BME280;1033;52.560;13.374;2022-12-29T13:28:06;99901.22;;;11.16;83.31
67015;BME280;1033;52.560;13.374;2022-12-29T13:30:45;99909.19;;;11.11;83.80
67015;BME280;1033;52.560;13.374;2022-12-29T13:33:24;99902.13;;;11.10;84.32
67015;BME280;1033;52.560;13.374;2022-12-29T13:36:02;99899.06;;;11.07;84.54
67015;BME280;1033;52.560;13.374;2022-12-29T13:38:36;99907.09;;;11.13;84.74
67015;BME280;1033;52.560;13.374;2022-12-29T13:41:10;99900.09;;;11.06;85.17
67015;BME280;1033;52.560;13.374;2022-12-29T13:43:44;99908.84;;;11.08;85.14
67015;BME280;1033;52.560;13.374;2022-12-29T13:46:22;99901.41;;;11.03;84.89
67015;BME280;1033;52.560;13.374;2022-12-29T13:48:55;99902.53;;;10.96;84.92
67015;BME280;1033;52.560;13.374;2022-12-29T13:51:27;99910.22;;;10.99;84.72
67015;BME280;1033;52.560;13.374;2022-12-29T13:54:17;99918.91;;;11.01;85.20